Time;durP1;ratioP1;P1;durP2;ratioP2;P2;SDS_P1;SDS_P2;PMS_P1;PMS_P2;Temp;Humidity;BMP_temperature;BMP_pressure;BME280_temperature;BME280_humidity;BME280_pressure;Samples;Min_cycle;Max_cycle;Signal;HPM_P1;HPM_P2
2023/07/17 00:02:14;;;;;;;6.27;5.77;;;18.10;99.90;;;;;;4889000;29;20295;-71
2023/07/17 00:04:40;;;;;;;5.90;5.57;;;18.00;99.90;;;;;;4891294;29;20247;-72
2023/07/17 00:07:05;;;;;;;8.10;6.37;;;18.10;99.90;;;;;;4885985;29;20215;-73
2023/07/17 00:09:31;;;;;;;6.90;6.40;;;18.10;99.90;;;;;;4888898;29;20469;-73
2023/07/17 00:11:57;;;;;;;5.80;5.23;;;18.20;99.90;;;;;;4882371;29;20275;-73
2023/07/17 00:14:22;;;;;;;6.30;5.80;;;18.10;99.90;;;;;;4887300;29;20184;-73
2023/07/17 00:16:48;;;;;;;6.73;6.23;;;18.00;99.90;;;;;;4883033;29;20192;-73
2023/07/17 00:19:13;;;;;;;5.93;5.63;;;18.20;99.90;;;;;;4890066;29;20204;-72
2023/07/17 00:21:39;;;;;;;6.53;5.93;;;18.20;99.90;;;;;;4884647;29;20180;-72
2023/07/17 00:24:05;;;;;;;6.03;5.80;;;18.40;99.90;;;;;;4883209;29;20181;-73
2023/07/17 00:26:30;;;;;;;5.20;4.70;;;18.30;99.90;;;;;;4886346;29;20180;-73
2023/07/17 00:29:21;;;;;;;7.50;5.97;;;18.30;99.90;;;;;;4891073;29;20241;-73
2023/07/17 00:31:46;;;;;;;6.37;5.67;;;18.30;99.90;;;;;;4882521;29;20275;-73
2023/07/17 00:34:12;;;;;;;5.10;4.70;;;18.40;99.90;;;;;;4886132;29;21022;-73
2023/07/17 00:36:38;;;;;;;5.53;5.20;;;18.50;99.90;;;;;;4886798;29;20196;-73
2023/07/17 00:39:05;;;;;;;6.00;5.60;;;18.40;99.90;;;;;;4890358;29;20291;-73
2023/07/17 00:41:31;;;;;;;6.13;5.50;;;18.40;99.90;;;;;;4887344;29;21084;-72
2023/07/17 00:43:56;;;;;;;6.47;5.90;;;18.20;99.90;;;;;;4886515;29;20227;-72
2023/07/17 00:46:23;;;;;;;5.13;4.77;;;18.20;99.90;;;;;;4890327;29;20224;-73
2023/07/17 00:48:49;;;;;;;5.77;4.83;;;18.20;99.90;;;;;;4887060;29;20488;-73
2023/07/17 00:51:14;;;;;;;4.90;4.50;;;18.40;99.90;;;;;;4887257;29;20934;-73
2023/07/17 00:53:41;;;;;;;6.00;5.50;;;18.50;99.90;;;;;;4881323;29;20456;-72
2023/07/17 00:56:06;;;;;;;5.70;5.30;;;18.50;99.90;;;;;;4889037;29;20248;-72
2023/07/17 00:58:32;;;;;;;5.67;5.17;;;18.50;99.90;;;;;;4888320;29;20452;-73
2023/07/17 01:00:58;;;;;;;7.10;6.00;;;18.30;99.90;;;;;;4889348;29;20465;-71
2023/07/17 01:03:23;;;;;;;5.70;5.60;;;18.30;99.90;;;;;;4886010;29;20863;-72
2023/07/17 01:05:49;;;;;;;5.80;5.40;;;18.20;99.90;;;;;;4885317;29;20272;-71
2023/07/17 01:08:15;;;;;;;6.13;5.67;;;18.10;99.90;;;;;;4882943;29;20275;-71
2023/07/17 01:10:42;;;;;;;11.07;6.30;;;18.10;99.90;;;;;;4873409;29;20208;-71
2023/07/17 01:13:10;;;;;;;6.47;5.90;;;18.00;99.90;;;;;;4886841;29;20442;-72
2023/07/17 01:15:36;;;;;;;5.60;5.30;;;18.00;99.90;;;;;;4889077;29;20573;-71
2023/07/17 01:18:02;;;;;;;7.83;5.80;;;18.00;99.90;;;;;;4879965;29;21174;-71
2023/07/17 01:20:28;;;;;;;5.73;5.30;;;18.00;99.90;;;;;;4884921;29;20184;-72
2023/07/17 01:23:00;;;;;;;6.37;5.77;;;18.00;99.90;;;;;;4875044;29;20486;-72
2023/07/17 01:25:26;;;;;;;5.13;4.60;;;17.90;99.90;;;;;;4887203;29;20432;-72
2023/07/17 01:27:51;;;;;;;5.93;5.63;;;18.00;99.90;;;;;;4870735;29;20811;-72
2023/07/17 01:30:17;;;;;;;8.60;5.80;;;17.90;99.90;;;;;;4886880;29;20216;-72
2023/07/17 01:32:43;;;;;;;4.90;4.53;;;17.80;99.90;;;;;;4884061;29;20204;-71
2023/07/17 01:39:02;;;;;;;4.67;4.47;;;17.70;99.90;;;;;;4882000;29;20287;-71
2023/07/17 01:41:27;;;;;;;5.10;4.70;;;17.70;99.90;;;;;;4885396;29;20560;-71
2023/07/17 01:43:53;;;;;;;5.20;4.80;;;17.70;99.90;;;;;;4881503;29;20539;-71
2023/07/17 01:46:18;;;;;;;4.97;4.67;;;17.80;99.90;;;;;;4889687;29;20224;-71
2023/07/17 01:48:44;;;;;;;4.47;4.23;;;17.80;99.90;;;;;;4883813;29;20259;-71
2023/07/17 01:51:10;;;;;;;4.77;4.53;;;17.70;99.90;;;;;;4883860;29;20195;-72
2023/07/17 02:07:04;;;;;;;4.20;3.97;;;17.70;99.90;;;;;;4879167;29;20447;-70
2023/07/17 02:22:58;;;;;;;3.70;3.57;;;17.50;99.90;;;;;;4887210;29;20499;-72
2023/07/17 02:28:45;;;;;;;5.50;3.30;;;17.60;99.90;;;;;;4887004;29;20227;-72
2023/07/17 02:35:04;;;;;;;2.67;2.57;;;17.60;99.90;;;;;;4883383;29;20711;-72
2023/07/17 02:40:52;;;;;;;3.50;2.60;;;17.60;99.90;;;;;;4887895;29;20785;-72
2023/07/17 02:43:17;;;;;;;3.63;3.17;;;17.50;99.90;;;;;;4889342;29;20456;-72
2023/07/17 02:52:53;;;;;;;2.40;2.20;;;17.20;99.90;;;;;;4879579;29;20479;-72
2023/07/17 02:55:18;;;;;;;3.07;2.97;;;17.10;99.90;;;;;;4893634;29;20441;-72
2023/07/17 02:57:44;;;;;;;3.10;3.00;;;17.20;99.90;;;;;;4888321;29;20204;-73
2023/07/17 03:00:12;;;;;;;2.80;2.70;;;17.20;99.90;;;;;;4888264;29;20188;-72
2023/07/17 03:09:47;;;;;;;2.50;2.40;;;17.20;99.90;;;;;;4880794;29;20463;-70
2023/07/17 03:12:12;;;;;;;4.73;3.03;;;17.20;99.90;;;;;;4884613;29;20971;-71
2023/07/17 03:14:38;;;;;;;2.73;2.67;;;17.30;99.90;;;;;;4888365;29;20450;-72
2023/07/17 03:17:03;;;;;;;2.13;2.13;;;17.40;99.90;;;;;;4884238;29;20206;-72
2023/07/17 03:19:29;;;;;;;2.77;2.67;;;17.30;99.90;;;;;;4888458;29;20196;-72
2023/07/17 03:21:54;;;;;;;2.30;2.30;;;17.30;99.90;;;;;;4889232;29;20590;-72
2023/07/17 03:24:20;;;;;;;2.73;2.63;;;17.30;99.90;;;;;;4881309;29;21412;-72
2023/07/17 03:33:55;;;;;;;2.73;2.53;;;17.10;99.90;;;;;;4882331;29;20417;-72
2023/07/17 03:43:39;;;;;;;2.50;2.40;;;16.90;99.90;;;;;;4880995;29;20424;-72
2023/07/17 03:49:26;;;;;;;2.83;2.73;;;16.70;99.90;;;;;;4883923;29;20499;-72
2023/07/17 03:51:52;;;;;;;3.10;3.00;;;16.70;99.90;;;;;;4885431;29;20468;-73
2023/07/17 03:54:17;;;;;;;3.53;3.33;;;16.70;99.90;;;;;;4883069;29;20211;-74
2023/07/17 03:56:43;;;;;;;11.47;10.37;;;16.70;99.90;;;;;;4890144;29;20196;-73
2023/07/17 03:59:09;;;;;;;3.33;3.23;;;16.60;99.90;;;;;;4887179;29;20232;-74
2023/07/17 04:01:34;;;;;;;3.40;3.20;;;16.50;99.90;;;;;;4881935;29;20205;-72
2023/07/17 04:04:00;;;;;;;3.60;2.80;;;16.50;99.90;;;;;;4883911;29;20185;-72
2023/07/17 04:06:26;;;;;;;3.17;2.77;;;16.50;99.90;;;;;;4887461;29;20461;-72
2023/07/17 04:08:51;;;;;;;3.30;3.10;;;16.50;99.90;;;;;;4887082;29;20208;-71
2023/07/17 04:11:17;;;;;;;2.93;2.57;;;16.50;99.90;;;;;;4879996;29;20204;-72
2023/07/17 04:13:44;;;;;;;2.80;2.70;;;16.30;99.90;;;;;;4885542;29;20626;-72
2023/07/17 04:16:09;;;;;;;3.33;2.97;;;16.40;99.90;;;;;;4882185;29;20665;-72
2023/07/17 04:18:35;;;;;;;3.53;3.30;;;16.50;99.90;;;;;;4884408;29;20460;-72
2023/07/17 04:21:01;;;;;;;3.53;3.40;;;16.60;99.90;;;;;;4875977;29;20229;-72
2023/07/17 04:23:26;;;;;;;2.80;2.70;;;16.60;99.90;;;;;;4875568;29;20877;-72
2023/07/17 04:25:54;;;;;;;3.10;3.00;;;16.60;99.90;;;;;;4882229;29;20691;-71
2023/07/17 04:28:20;;;;;;;3.37;3.17;;;16.60;99.90;;;;;;4881084;29;20600;-71
2023/07/17 04:30:45;;;;;;;3.47;3.27;;;16.70;99.90;;;;;;4885957;29;20467;-72
2023/07/17 04:33:11;;;;;;;4.63;3.13;;;16.70;99.90;;;;;;4885099;29;20271;-72
2023/07/17 04:35:37;;;;;;;2.90;2.80;;;16.70;99.90;;;;;;4891875;29;20204;-71
2023/07/17 04:38:03;;;;;;;2.53;2.40;;;16.80;99.90;;;;;;4885223;29;20196;-72
2023/07/17 04:40:30;;;;;;;4.30;3.50;;;16.80;99.90;;;;;;4883471;29;20532;-72
2023/07/17 04:42:55;;;;;;;3.37;3.17;;;16.80;99.90;;;;;;4887934;29;20496;-72
2023/07/17 04:45:21;;;;;;;9.93;3.50;;;16.70;99.90;;;;;;4882318;29;21155;-71
2023/07/17 04:47:46;;;;;;;2.90;2.70;;;16.90;99.90;;;;;;4890413;29;20251;-72
2023/07/17 04:50:12;;;;;;;5.40;3.60;;;17.10;99.90;;;;;;4888381;29;20233;-71
2023/07/17 04:52:37;;;;;;;3.00;2.90;;;17.30;99.90;;;;;;4898843;29;20224;-72
2023/07/17 04:55:03;;;;;;;3.73;3.33;;;17.50;99.90;;;;;;4892125;29;20358;-71
2023/07/17 04:57:29;;;;;;;3.00;2.80;;;17.90;99.90;;;;;;4892319;29;20200;-71
2023/07/17 04:59:55;;;;;;;3.33;3.07;;;18.10;99.90;;;;;;4890386;29;20937;-72
2023/07/17 05:02:20;;;;;;;4.70;3.00;;;18.40;99.90;;;;;;4885286;29;20808;-71
2023/07/17 05:04:46;;;;;;;5.10;3.30;;;18.60;99.90;;;;;;4896269;29;20247;-71
2023/07/17 05:07:11;;;;;;;2.80;2.80;;;18.80;99.90;;;;;;4891475;29;20202;-72
2023/07/17 05:09:37;;;;;;;3.23;3.00;;;19.10;99.90;;;;;;4895965;29;20212;-72
2023/07/17 05:12:04;;;;;;;3.80;3.27;;;19.40;99.90;;;;;;4894834;29;20600;-72
2023/07/17 05:14:30;;;;;;;2.60;2.40;;;19.60;99.90;;;;;;4895207;29;20168;-72
2023/07/17 05:16:55;;;;;;;3.90;3.20;;;19.60;99.90;;;;;;4888450;29;20637;-73
2023/07/17 05:19:21;;;;;;;3.90;2.80;;;19.60;99.90;;;;;;4889837;29;20392;-71
2023/07/17 05:21:46;;;;;;;2.70;2.60;;;19.70;99.90;;;;;;4890673;29;20692;-72
2023/07/17 05:24:12;;;;;;;2.80;2.60;;;19.90;99.90;;;;;;4896489;29;20302;-72
2023/07/17 05:26:37;;;;;;;2.63;2.50;;;19.90;99.90;;;;;;4889881;29;20207;-72
2023/07/17 05:29:04;;;;;;;2.97;2.90;;;19.80;99.90;;;;;;4896398;29;20259;-72
2023/07/17 05:31:30;;;;;;;2.87;2.67;;;19.70;99.90;;;;;;4896248;29;20202;-72
2023/07/17 05:33:56;;;;;;;2.83;2.63;;;19.90;99.90;;;;;;4890955;29;20440;-71
2023/07/17 05:36:22;;;;;;;2.90;2.73;;;19.90;99.90;;;;;;4902523;29;20203;-72
2023/07/17 05:38:47;;;;;;;2.03;1.80;;;20.00;99.90;;;;;;4883293;29;20227;-72
2023/07/17 05:41:13;;;;;;;3.13;2.80;;;20.40;99.90;;;;;;4877486;29;20482;-72
2023/07/17 05:43:39;;;;;;;3.43;3.33;;;20.20;99.90;;;;;;4884886;29;20675;-72
2023/07/17 05:46:04;;;;;;;3.17;3.07;;;20.30;99.90;;;;;;4890981;29;20199;-71
2023/07/17 05:48:30;;;;;;;3.27;3.13;;;20.60;99.90;;;;;;4887946;29;20207;-72
2023/07/17 05:50:56;;;;;;;3.67;3.33;;;20.90;99.90;;;;;;4896471;29;20211;-72
2023/07/17 05:53:21;;;;;;;5.53;4.37;;;20.90;99.90;;;;;;4889675;29;20209;-72
2023/07/17 05:55:47;;;;;;;4.57;4.00;;;20.90;99.90;;;;;;4898965;29;20192;-72
2023/07/17 05:58:12;;;;;;;3.67;3.57;;;20.70;99.90;;;;;;4892483;29;20347;-71
2023/07/17 06:00:38;;;;;;;2.80;2.70;;;21.10;99.90;;;;;;4896306;29;20208;-71
2023/07/17 06:03:05;;;;;;;4.13;3.90;;;21.50;99.90;;;;;;4874614;29;20192;-72
2023/07/17 06:05:35;;;;;;;3.97;3.63;;;21.90;99.90;;;;;;4896364;29;20440;-72
2023/07/17 06:08:00;;;;;;;4.53;4.20;;;21.80;99.90;;;;;;4890537;29;21259;-72
2023/07/17 06:10:26;;;;;;;3.43;3.23;;;21.80;99.90;;;;;;4891775;29;20571;-73
2023/07/17 06:12:52;;;;;;;4.13;3.93;;;21.60;99.90;;;;;;4890477;29;20224;-72
2023/07/17 06:15:17;;;;;;;4.03;3.73;;;21.90;99.90;;;;;;4897679;29;20220;-72
2023/07/17 06:17:43;;;;;;;4.60;4.50;;;22.10;99.90;;;;;;4894600;29;20207;-72
2023/07/17 06:20:09;;;;;;;4.47;4.10;;;22.50;99.90;;;;;;4895023;29;20195;-71
2023/07/17 06:22:35;;;;;;;4.93;4.33;;;22.20;99.90;;;;;;4885736;29;20731;-72
2023/07/17 06:25:01;;;;;;;5.23;4.80;;;22.00;99.90;;;;;;4888012;29;21174;-73
2023/07/17 06:27:27;;;;;;;4.27;3.90;;;21.90;99.90;;;;;;4895191;29;20196;-72
2023/07/17 06:29:53;;;;;;;5.17;4.87;;;22.30;99.90;;;;;;4891951;29;20470;-73
2023/07/17 06:32:18;;;;;;;4.67;4.03;;;22.70;99.90;;;;;;4888180;29;20199;-71
2023/07/17 06:34:44;;;;;;;5.03;4.83;;;22.90;99.90;;;;;;4893668;29;20247;-71
2023/07/17 06:37:09;;;;;;;6.40;5.90;;;23.10;99.90;;;;;;4887367;29;20208;-73
2023/07/17 06:39:35;;;;;;;5.77;5.37;;;22.80;99.90;;;;;;4889652;29;20189;-72
2023/07/17 06:42:00;;;;;;;4.70;4.40;;;23.10;99.90;;;;;;4888591;29;20205;-71
2023/07/17 06:44:26;;;;;;;6.73;5.10;;;23.40;99.90;;;;;;4895041;29;20704;-72
2023/07/17 06:46:51;;;;;;;6.67;6.10;;;23.70;99.90;;;;;;4894063;29;20196;-72
2023/07/17 06:49:17;;;;;;;6.00;5.50;;;23.70;99.30;;;;;;4899140;29;20212;-72
2023/07/17 06:51:42;;;;;;;6.10;5.80;;;23.60;99.90;;;;;;4891923;29;20271;-73
2023/07/17 06:54:08;;;;;;;7.13;6.43;;;24.10;97.80;;;;;;4888003;29;20220;-72
2023/07/17 06:56:34;;;;;;;5.47;5.03;;;23.90;98.20;;;;;;4893554;29;20192;-71
2023/07/17 06:59:01;;;;;;;5.23;4.93;;;24.70;98.10;;;;;;4887786;29;20207;-72
2023/07/17 07:01:26;;;;;;;6.20;5.70;;;24.00;97.80;;;;;;4888105;29;20202;-72
2023/07/17 07:03:52;;;;;;;5.07;4.70;;;24.10;97.60;;;;;;4890278;29;20452;-71
2023/07/17 07:06:17;;;;;;;7.77;5.97;;;24.30;97.40;;;;;;4897102;29;20184;-72
2023/07/17 07:08:43;;;;;;;5.03;4.73;;;24.70;96.30;;;;;;4892289;29;20664;-71
2023/07/17 07:11:10;;;;;;;6.57;5.53;;;25.00;96.70;;;;;;4889479;29;20194;-72
2023/07/17 07:13:35;;;;;;;5.57;5.17;;;24.90;95.30;;;;;;4894562;29;20207;-72
2023/07/17 07:16:01;;;;;;;7.37;6.07;;;24.70;96.10;;;;;;4890038;29;21353;-72
2023/07/17 07:18:27;;;;;;;12.17;11.03;;;25.00;96.10;;;;;;4887922;29;20204;-72
2023/07/17 07:20:52;;;;;;;4.83;4.63;;;24.30;97.10;;;;;;4891427;29;20188;-73
2023/07/17 07:23:19;;;;;;;4.67;4.30;;;24.90;96.00;;;;;;4890055;29;20952;-72
2023/07/17 07:25:44;;;;;;;4.63;4.43;;;24.70;95.90;;;;;;4890330;29;20222;-72
2023/07/17 07:28:12;;;;;;;5.20;4.73;;;25.20;95.30;;;;;;4882607;29;20441;-72
2023/07/17 07:30:37;;;;;;;4.60;4.20;;;25.40;95.30;;;;;;4889166;29;20223;-72
2023/07/17 07:33:03;;;;;;;5.63;4.30;;;25.50;94.10;;;;;;4884727;29;20520;-72
2023/07/17 07:35:29;;;;;;;3.87;3.73;;;25.60;94.00;;;;;;4891259;29;20436;-72
2023/07/17 07:37:54;;;;;;;4.00;3.80;;;25.70;93.20;;;;;;4885037;29;20197;-72
2023/07/17 07:40:20;;;;;;;5.63;5.33;;;24.20;94.00;;;;;;4897690;29;20257;-73
2023/07/17 07:42:46;;;;;;;4.00;3.70;;;23.80;96.30;;;;;;4887984;29;20579;-72
2023/07/17 07:45:13;;;;;;;4.37;4.17;;;24.40;95.70;;;;;;4889525;29;20254;-71
2023/07/17 07:47:39;;;;;;;7.10;4.67;;;24.00;95.70;;;;;;4883807;29;20514;-72
2023/07/17 07:50:06;;;;;;;4.13;3.93;;;23.90;97.00;;;;;;4891128;29;20516;-73
2023/07/17 07:52:32;;;;;;;4.10;3.80;;;24.20;97.50;;;;;;4884262;29;20476;-72
2023/07/17 07:54:57;;;;;;;4.77;4.30;;;24.20;95.10;;;;;;4885616;29;20499;-73
2023/07/17 07:57:23;;;;;;;4.80;4.30;;;24.10;94.60;;;;;;4870666;29;20193;-72
2023/07/17 07:59:49;;;;;;;4.70;4.40;;;23.80;96.10;;;;;;4889939;29;20188;-72
2023/07/17 08:02:15;;;;;;;5.07;4.67;;;23.60;96.90;;;;;;4889448;29;20413;-72
2023/07/17 08:04:41;;;;;;;4.80;4.30;;;23.10;97.50;;;;;;4893200;29;20413;-71
2023/07/17 08:07:07;;;;;;;9.10;4.87;;;22.40;99.00;;;;;;4885988;29;20553;-72
2023/07/17 08:09:32;;;;;;;5.53;5.07;;;22.20;99.90;;;;;;4889101;29;20207;-72
2023/07/17 08:11:58;;;;;;;4.30;4.00;;;22.50;99.70;;;;;;4887595;29;20451;-72
2023/07/17 08:14:24;;;;;;;4.77;4.57;;;22.90;98.70;;;;;;4882918;29;20212;-73
2023/07/17 08:16:50;;;;;;;4.10;3.90;;;23.10;98.40;;;;;;4886321;29;20437;-72
2023/07/17 08:19:17;;;;;;;4.20;3.90;;;23.40;99.00;;;;;;4889601;29;20199;-73
2023/07/17 08:21:43;;;;;;;5.50;5.10;;;24.10;97.70;;;;;;4867804;29;20733;-73
2023/07/17 08:24:09;;;;;;;3.40;3.30;;;24.80;99.90;;;;;;4877783;29;20456;-73
2023/07/17 08:26:36;;;;;;;4.20;4.00;;;26.30;99.90;;;;;;4894106;29;20188;-73
2023/07/17 08:29:02;;;;;;;5.60;4.37;;;26.30;97.80;;;;;;4889337;29;20609;-72
2023/07/17 08:31:28;;;;;;;3.77;3.57;;;26.10;98.30;;;;;;4897558;29;20444;-74
2023/07/17 08:33:54;;;;;;;4.17;3.70;;;26.20;95.70;;;;;;4884720;29;20467;-72
2023/07/17 08:36:22;;;;;;;4.37;4.17;;;26.80;95.30;;;;;;4892578;29;20671;-73
2023/07/17 08:38:47;;;;;;;5.27;4.77;;;27.50;93.70;;;;;;4891370;29;20192;-72
2023/07/17 08:41:16;;;;;;;4.13;3.87;;;27.30;93.10;;;;;;4875846;29;21268;-72
2023/07/17 08:43:42;;;;;;;4.67;4.27;;;26.80;91.10;;;;;;4885983;29;20533;-73
2023/07/17 08:46:09;;;;;;;6.43;4.30;;;25.70;92.30;;;;;;4894215;29;20568;-73
2023/07/17 08:48:35;;;;;;;4.30;4.00;;;26.10;92.90;;;;;;4887189;29;20539;-73
2023/07/17 08:51:02;;;;;;;5.80;4.23;;;26.50;91.40;;;;;;4891078;29;20659;-71
2023/07/17 08:53:28;;;;;;;4.50;4.30;;;26.70;91.30;;;;;;4888224;29;20212;-72
2023/07/17 08:55:56;;;;;;;4.77;4.47;;;27.20;90.80;;;;;;4890113;29;20425;-72
2023/07/17 08:58:24;;;;;;;4.47;4.23;;;27.70;87.90;;;;;;4895142;29;20511;-72
2023/07/17 09:00:50;;;;;;;4.23;4.10;;;28.10;86.10;;;;;;4895779;29;20912;-73
2023/07/17 09:03:17;;;;;;;4.10;3.93;;;28.40;85.70;;;;;;4868401;29;21094;-72
2023/07/17 09:05:43;;;;;;;4.83;4.30;;;28.40;85.40;;;;;;4890742;29;20515;-71
2023/07/17 09:08:09;;;;;;;5.27;4.90;;;27.90;87.00;;;;;;4887607;29;20445;-72
2023/07/17 09:10:36;;;;;;;5.03;4.63;;;27.00;90.10;;;;;;4888748;29;20547;-73
2023/07/17 09:13:02;;;;;;;5.70;5.40;;;26.10;90.20;;;;;;4893792;29;20471;-73
2023/07/17 09:15:29;;;;;;;6.27;5.77;;;26.40;90.50;;;;;;4886933;29;20913;-73
2023/07/17 09:17:55;;;;;;;4.30;4.10;;;27.50;90.90;;;;;;4886143;29;20444;-74
2023/07/17 09:20:21;;;;;;;4.63;4.10;;;27.40;86.90;;;;;;4892113;29;20491;-73
2023/07/17 09:22:48;;;;;;;4.40;4.10;;;26.90;70.90;;;;;;4885959;29;20440;-73
2023/07/17 09:25:15;;;;;;;4.77;4.53;;;27.00;72.20;;;;;;4893067;29;20544;-73
2023/07/17 09:27:45;;;;;;;4.60;4.23;;;27.60;71.80;;;;;;4886028;29;20437;-73
2023/07/17 09:30:12;;;;;;;3.80;3.50;;;27.40;70.50;;;;;;4892300;29;20464;-73
2023/07/17 09:32:38;;;;;;;3.67;3.57;;;28.10;70.40;;;;;;4892936;29;20465;-73
2023/07/17 09:35:05;;;;;;;3.97;3.87;;;28.00;68.20;;;;;;4894326;29;20416;-73
2023/07/17 09:37:33;;;;;;;4.30;4.00;;;27.30;70.00;;;;;;4887014;29;20448;-72
2023/07/17 09:39:59;;;;;;;4.43;4.23;;;26.00;72.70;;;;;;4890892;29;20448;-73
2023/07/17 09:42:25;;;;;;;4.10;3.90;;;25.60;74.80;;;;;;4888385;29;20433;-73
2023/07/17 09:44:52;;;;;;;3.70;3.50;;;26.60;75.90;;;;;;4875608;29;20970;-74
2023/07/17 09:47:21;;;;;;;4.77;4.27;;;26.60;73.40;;;;;;4888551;29;20204;-72
2023/07/17 09:49:54;;;;;;;4.90;4.60;;;26.40;75.50;;;;;;4892033;29;21047;-72
2023/07/17 09:52:20;;;;;;;4.80;4.50;;;26.30;77.30;;;;;;4889334;29;20619;-72
2023/07/17 09:54:49;;;;;;;5.07;4.93;;;27.00;68.10;;;;;;4890197;29;20986;-72
2023/07/17 09:57:34;;;;;;;4.00;3.70;;;27.00;67.40;;;;;;4886218;29;20440;-72
2023/07/17 10:00:12;;;;;;;3.50;3.30;;;26.50;68.40;;;;;;4884932;29;20480;-73
2023/07/17 10:02:53;;;;;;;4.63;4.13;;;26.80;68.90;;;;;;4893877;29;20523;-73
2023/07/17 10:05:20;;;;;;;3.80;3.60;;;26.60;68.20;;;;;;4889372;29;20476;-73
2023/07/17 10:07:48;;;;;;;4.00;3.90;;;26.50;68.40;;;;;;4893549;29;21244;-74
2023/07/17 10:10:14;;;;;;;3.80;3.50;;;27.10;67.60;;;;;;4887774;29;20467;-73
2023/07/17 10:12:40;;;;;;;3.80;3.60;;;27.50;65.00;;;;;;4891843;29;21040;-74
2023/07/17 10:15:07;;;;;;;4.27;4.00;;;26.80;65.10;;;;;;4884187;29;20193;-72
2023/07/17 10:17:34;;;;;;;4.83;3.90;;;26.10;66.20;;;;;;4888915;29;21016;-72
2023/07/17 10:20:09;;;;;;;3.30;3.20;;;26.50;66.90;;;;;;4885295;29;20520;-74
2023/07/17 10:22:40;;;;;;;6.70;6.30;;;27.10;64.90;;;;;;4884895;29;20421;-73
2023/07/17 10:25:26;;;;;;;3.37;3.27;;;27.60;64.30;;;;;;4868512;29;20504;-72
2023/07/17 10:27:57;;;;;;;3.90;3.70;;;27.60;63.00;;;;;;4886899;29;20484;-73
2023/07/17 10:30:30;;;;;;;3.20;3.10;;;27.90;64.00;;;;;;4863189;29;20707;-73
2023/07/17 10:40:05;;;;;;;4.27;4.03;;;26.40;64.30;;;;;;4889159;29;20496;-73
2023/07/17 10:49:16;;;;;;;5.17;4.70;;;25.80;66.30;;;;;;4888270;29;21274;-74
2023/07/17 11:35:52;;;;;;;11.13;5.10;;;26.00;78.50;;;;;;4882380;29;20456;-72
2023/07/17 11:38:19;;;;;;;4.47;4.27;;;25.50;80.70;;;;;;4893226;29;20432;-72
2023/07/17 11:41:01;;;;;;;4.70;4.40;;;25.30;82.30;;;;;;4891390;29;20449;-73
2023/07/17 11:43:37;;;;;;;5.00;4.80;;;25.40;81.10;;;;;;4881946;29;20468;-71
2023/07/17 11:49:26;;;;;;;4.87;4.40;;;26.70;77.60;;;;;;4872211;29;20519;-72
2023/07/17 11:51:52;;;;;;;4.27;3.97;;;28.10;77.30;;;;;;4893354;29;20441;-73
2023/07/17 11:54:18;;;;;;;5.10;4.90;;;28.90;74.30;;;;;;4889199;29;20464;-72
2023/07/17 11:56:45;;;;;;;5.03;4.63;;;28.80;74.80;;;;;;4891712;29;20501;-73
2023/07/17 11:59:16;;;;;;;7.23;6.27;;;29.50;74.60;;;;;;4887027;29;20444;-73
2023/07/17 12:01:42;;;;;;;4.33;4.17;;;30.50;71.50;;;;;;4891895;29;20508;-73
2023/07/17 12:04:23;;;;;;;5.10;4.60;;;30.40;69.20;;;;;;4891318;29;20448;-73
2023/07/17 12:06:49;;;;;;;4.73;4.30;;;29.20;71.10;;;;;;4895193;29;20672;-72
2023/07/17 12:09:14;;;;;;;3.83;3.70;;;28.40;73.50;;;;;;4891211;29;20479;-73
2023/07/17 12:11:42;;;;;;;5.40;5.00;;;27.80;74.80;;;;;;4893553;29;20520;-72
2023/07/17 12:14:12;;;;;;;5.20;4.90;;;27.20;74.60;;;;;;4889365;29;20283;-73
2023/07/17 12:16:38;;;;;;;5.37;4.97;;;27.10;74.80;;;;;;4893104;29;20813;-73
2023/07/17 12:19:03;;;;;;;5.13;4.83;;;27.20;73.00;;;;;;4887896;29;20554;-72
2023/07/17 12:21:30;;;;;;;4.93;4.70;;;27.20;74.00;;;;;;4878845;29;20196;-72
2023/07/17 12:23:55;;;;;;;5.10;4.80;;;26.90;74.50;;;;;;4890709;29;20180;-72
2023/07/17 12:30:02;;;;;;;5.40;4.90;;;26.30;76.30;;;;;;4883483;29;20279;-72
2023/07/17 12:39:33;;;;;;;5.03;4.53;;;27.20;74.10;;;;;;4892752;29;20994;-73
2023/07/17 12:45:21;;;;;;;5.70;5.07;;;30.10;67.30;;;;;;4888011;29;20426;-73
2023/07/17 12:47:46;;;;;;;4.90;4.70;;;30.50;66.20;;;;;;4887069;29;20457;-73
2023/07/17 12:50:12;;;;;;;4.40;4.30;;;31.30;64.20;;;;;;4894780;29;20233;-73
2023/07/17 12:52:38;;;;;;;5.30;4.90;;;32.20;66.10;;;;;;4886116;29;20569;-73
2023/07/17 12:55:04;;;;;;;4.07;3.97;;;31.40;65.40;;;;;;4878316;29;20193;-73
2023/07/17 12:57:29;;;;;;;5.00;4.70;;;30.40;66.10;;;;;;4887082;29;20472;-73
2023/07/17 12:59:55;;;;;;;4.83;4.60;;;29.60;67.10;;;;;;4891295;29;20425;-72
2023/07/17 13:02:21;;;;;;;4.50;4.10;;;29.00;72.30;;;;;;4894429;29;20251;-73
2023/07/17 13:04:47;;;;;;;4.77;4.67;;;28.70;74.20;;;;;;4888643;29;20184;-73
2023/07/17 13:07:13;;;;;;;6.20;4.43;;;28.10;67.40;;;;;;4885821;29;20536;-72
2023/07/17 13:09:38;;;;;;;4.93;4.73;;;28.30;68.80;;;;;;4883286;29;20286;-72
2023/07/17 13:12:04;;;;;;;4.80;4.57;;;28.20;69.10;;;;;;4892672;29;20168;-73
2023/07/17 13:14:30;;;;;;;4.93;4.60;;;28.50;69.30;;;;;;4892508;29;20245;-75
2023/07/17 13:16:55;;;;;;;5.00;4.50;;;28.70;69.30;;;;;;4892079;29;20512;-74
2023/07/17 13:19:21;;;;;;;5.07;4.73;;;29.40;68.90;;;;;;4888259;29;20203;-73
2023/07/17 13:21:46;;;;;;;5.60;5.20;;;30.00;67.10;;;;;;4891178;29;20846;-74
2023/07/17 13:24:12;;;;;;;4.60;4.40;;;30.40;66.90;;;;;;4887471;29;20198;-74
2023/07/17 13:26:37;;;;;;;4.93;4.60;;;30.30;67.80;;;;;;4894764;29;20173;-72
2023/07/17 13:29:07;;;;;;;4.43;4.10;;;30.30;69.40;;;;;;4889835;29;20181;-72
2023/07/17 13:31:33;;;;;;;4.47;4.13;;;29.50;69.60;;;;;;4888258;29;20324;-73
2023/07/17 13:33:58;;;;;;;4.47;4.17;;;29.50;64.30;;;;;;4894096;29;20511;-73
2023/07/17 13:36:24;;;;;;;3.83;3.60;;;29.70;65.70;;;;;;4890507;29;20509;-73
2023/07/17 13:38:49;;;;;;;3.30;3.30;;;29.60;57.90;;;;;;4894978;29;20192;-74
2023/07/17 13:41:42;;;;;;;3.43;3.33;;;29.40;57.80;;;;;;4873688;29;20201;-72
2023/07/17 13:44:08;;;;;;;3.60;3.50;;;29.50;57.50;;;;;;4878081;29;20215;-73
2023/07/17 13:46:34;;;;;;;3.77;3.67;;;29.70;57.30;;;;;;4892595;29;20436;-73
2023/07/17 13:49:00;;;;;;;3.53;3.43;;;30.10;56.90;;;;;;4890282;29;20441;-72
2023/07/17 13:51:25;;;;;;;2.80;2.80;;;30.40;57.10;;;;;;4884735;29;20196;-72
2023/07/17 13:53:51;;;;;;;4.77;4.57;;;30.40;56.40;;;;;;4899418;29;20595;-73
2023/07/17 13:56:17;;;;;;;3.33;3.23;;;29.30;56.90;;;;;;4883169;29;20208;-73
2023/07/17 13:58:42;;;;;;;4.53;3.97;;;28.60;57.10;;;;;;4885752;29;20219;-73
2023/07/17 14:01:08;;;;;;;4.10;3.90;;;28.30;57.90;;;;;;4882601;29;21043;-74
2023/07/17 14:03:33;;;;;;;3.00;2.90;;;27.70;58.50;;;;;;4892123;29;20279;-73
2023/07/17 14:05:59;;;;;;;4.27;3.97;;;27.50;58.20;;;;;;4880891;29;20231;-72
2023/07/17 14:08:24;;;;;;;3.93;3.77;;;27.00;58.60;;;;;;4889043;29;20200;-72
2023/07/17 14:20:57;;;;;;;4.47;4.27;;;27.30;58.60;;;;;;4892797;29;20505;-73
2023/07/17 14:33:29;;;;;;;3.60;3.40;;;26.80;59.70;;;;;;4892637;29;20447;-74
2023/07/17 14:35:55;;;;;;;3.73;3.50;;;26.60;59.40;;;;;;4867968;29;20458;-73
2023/07/17 14:38:21;;;;;;;4.03;3.83;;;26.50;59.60;;;;;;4897357;29;20441;-75
2023/07/17 14:40:46;;;;;;;3.13;3.03;;;26.50;61.20;;;;;;4891971;29;20206;-74
2023/07/17 14:43:12;;;;;;;3.50;3.40;;;26.70;60.80;;;;;;4896935;29;20192;-74
2023/07/17 14:45:37;;;;;;;2.93;2.83;;;26.40;59.60;;;;;;4894490;29;20685;-74
2023/07/17 14:48:03;;;;;;;6.20;3.57;;;26.20;59.20;;;;;;4893871;29;20585;-74
2023/07/17 14:50:29;;;;;;;3.53;3.37;;;26.20;59.50;;;;;;4893818;29;20228;-72
2023/07/17 14:52:55;;;;;;;3.30;3.20;;;26.30;59.10;;;;;;4888634;29;20513;-74
2023/07/17 14:55:21;;;;;;;3.80;3.60;;;26.30;59.60;;;;;;4885989;29;20940;-75
2023/07/17 14:57:46;;;;;;;3.60;3.33;;;26.10;59.20;;;;;;4896364;29;20213;-73
2023/07/17 15:00:12;;;;;;;3.50;3.27;;;25.80;60.00;;;;;;4871746;29;20448;-73
2023/07/17 15:02:38;;;;;;;5.17;4.97;;;25.80;60.80;;;;;;4892225;29;20334;-73
2023/07/17 15:05:04;;;;;;;3.77;3.53;;;25.20;65.20;;;;;;4891225;29;20935;-74
2023/07/17 15:07:31;;;;;;;4.97;4.20;;;24.40;69.50;;;;;;4895837;29;20264;-73
2023/07/17 15:09:57;;;;;;;5.30;4.13;;;23.90;75.30;;;;;;4893476;29;21611;-73
2023/07/17 15:12:23;;;;;;;3.67;3.57;;;23.30;83.40;;;;;;4897740;29;20432;-74
2023/07/17 15:14:48;;;;;;;3.90;3.63;;;22.70;90.60;;;;;;4891142;29;20445;-74
2023/07/17 15:17:14;;;;;;;4.00;3.67;;;22.30;91.40;;;;;;4889561;29;20433;-72
2023/07/17 15:19:41;;;;;;;3.93;3.67;;;21.90;98.30;;;;;;4891034;29;20272;-73
2023/07/17 15:22:07;;;;;;;3.10;3.00;;;21.90;99.90;;;;;;4891073;29;20194;-72
2023/07/17 15:24:33;;;;;;;5.03;3.50;;;21.70;99.90;;;;;;4883561;29;20448;-73
2023/07/17 15:26:58;;;;;;;3.90;3.60;;;21.50;99.90;;;;;;4890027;29;20550;-73
2023/07/17 15:29:24;;;;;;;3.27;3.07;;;21.00;99.90;;;;;;4889158;29;20566;-72
2023/07/17 15:31:49;;;;;;;2.70;2.70;;;20.80;99.90;;;;;;4890986;29;20264;-74
2023/07/17 15:34:15;;;;;;;3.03;2.92;;;;;;;;;;4898654;29;20430;-73